createdAt,value
2019-02-19T00:01:10.215Z,10.03
2019-02-19T00:06:16.200Z,5.80
2019-02-19T00:11:22.133Z,5.00
2019-02-19T00:16:28.000Z,5.30
2019-02-19T00:21:34.019Z,4.83
2019-02-19T00:26:40.880Z,5.77
2019-02-19T00:31:46.939Z,5.90
2019-02-19T00:36:52.893Z,5.77
2019-02-19T00:41:58.920Z,3.60
2019-02-19T00:47:04.943Z,5.70
2019-02-19T00:52:11.831Z,8.27
2019-02-19T00:57:17.761Z,5.70
2019-02-19T01:02:25.401Z,5.53
2019-02-19T01:07:31.841Z,10.70
2019-02-19T01:12:37.854Z,9.47
2019-02-19T01:17:47.104Z,8.70
2019-02-19T01:22:53.328Z,10.37
2019-02-19T01:27:59.424Z,10.93
2019-02-19T01:33:05.726Z,9.77
2019-02-19T01:38:11.775Z,10.60
2019-02-19T01:43:17.758Z,11.00
2019-02-19T01:48:23.997Z,8.67
2019-02-19T01:53:30.321Z,11.13
2019-02-19T01:58:36.276Z,12.57
2019-02-19T02:03:42.209Z,6.50
2019-02-19T02:08:48.220Z,11.07
2019-02-19T02:13:54.239Z,10.47
2019-02-19T02:19:00.180Z,11.23
2019-02-19T02:24:06.810Z,8.20
2019-02-19T02:29:12.770Z,12.70
2019-02-19T02:34:18.637Z,13.33
2019-02-19T02:39:24.838Z,12.70
2019-02-19T02:44:30.982Z,8.37
2019-02-19T02:49:37.257Z,7.60
2019-02-19T02:54:43.305Z,9.30
2019-02-19T02:59:49.214Z,10.43
2019-02-19T03:04:56.316Z,11.37
2019-02-19T03:10:02.298Z,10.50
2019-02-19T03:15:09.845Z,9.40
2019-02-19T03:20:15.881Z,10.27
2019-02-19T03:25:21.857Z,13.20
2019-02-19T03:30:28.000Z,10.37
2019-02-19T03:35:35.163Z,13.27
2019-02-19T03:40:41.383Z,9.10
2019-02-19T03:45:47.335Z,14.80
2019-02-19T03:50:53.324Z,13.60
2019-02-19T03:55:59.272Z,13.33
2019-02-19T04:01:05.333Z,14.47
2019-02-19T04:06:11.370Z,15.30
2019-02-19T04:11:19.172Z,10.30
2019-02-19T04:16:25.130Z,17.03
2019-02-19T04:21:31.053Z,17.07
2019-02-19T04:26:36.923Z,10.57
2019-02-19T04:31:42.920Z,14.80
2019-02-19T04:36:48.849Z,14.10
2019-02-19T04:41:54.860Z,15.37
2019-02-19T04:47:00.829Z,18.10
2019-02-19T04:52:06.829Z,12.70
2019-02-19T04:57:13.577Z,14.40
2019-02-19T05:02:19.595Z,12.33
2019-02-19T05:07:25.620Z,12.87
2019-02-19T05:12:31.622Z,16.40
2019-02-19T05:17:37.567Z,13.97
2019-02-19T05:22:43.513Z,12.90
2019-02-19T05:27:49.440Z,11.27
2019-02-19T05:32:57.018Z,13.07
2019-02-19T05:38:02.984Z,13.07
2019-02-19T05:43:08.879Z,13.77
2019-02-19T05:48:15.562Z,16.87
2019-02-19T05:53:21.481Z,13.60
2019-02-19T05:58:27.634Z,16.93
2019-02-19T06:03:33.520Z,15.33
2019-02-19T06:08:39.405Z,19.63
2019-02-19T06:13:46.242Z,14.27
2019-02-19T06:18:52.305Z,14.53
2019-02-19T06:23:58.177Z,15.43
2019-02-19T06:29:04.207Z,19.27
2019-02-19T06:34:10.561Z,16.80
2019-02-19T06:39:17.020Z,22.10
2019-02-19T06:44:23.021Z,22.50
2019-02-19T06:49:29.341Z,25.87
2019-02-19T06:54:35.334Z,23.60
2019-02-19T06:59:41.289Z,20.50
2019-02-19T07:04:51.190Z,18.67
2019-02-19T07:09:57.111Z,27.73
2019-02-19T07:15:03.090Z,22.53
2019-02-19T07:20:09.144Z,26.00
2019-02-19T07:25:15.280Z,29.70
2019-02-19T07:30:21.396Z,24.63
2019-02-19T07:35:27.326Z,35.70
2019-02-19T07:40:33.203Z,28.77
2019-02-19T07:45:39.230Z,26.53
2019-02-19T07:50:45.189Z,24.27
2019-02-19T07:55:51.064Z,24.90
2019-02-19T08:00:57.209Z,23.33
2019-02-19T08:06:03.787Z,24.57
2019-02-19T08:11:09.869Z,20.70
2019-02-19T08:16:18.999Z,16.23
2019-02-19T08:21:25.201Z,25.60
2019-02-19T08:26:31.140Z,19.83
2019-02-19T08:31:37.116Z,22.13
2019-02-19T08:36:43.166Z,22.57
2019-02-19T08:41:49.108Z,18.73
2019-02-19T08:46:55.384Z,17.27
2019-02-19T08:52:01.329Z,24.17
2019-02-19T08:57:08.296Z,18.60
2019-02-19T09:02:14.358Z,15.83
2019-02-19T09:07:20.714Z,17.37
2019-02-19T09:12:26.781Z,18.07
2019-02-19T09:17:32.861Z,21.93
2019-02-19T09:22:38.852Z,14.87
2019-02-19T09:27:44.908Z,19.20
2019-02-19T09:32:50.889Z,20.23
2019-02-19T09:37:57.172Z,22.37
2019-02-19T09:43:03.084Z,19.23
2019-02-19T09:48:09.157Z,18.47
2019-02-19T09:53:15.109Z,17.17
2019-02-19T09:58:21.927Z,24.17
2019-02-19T10:03:27.994Z,18.93
2019-02-19T10:08:33.950Z,21.70
2019-02-19T10:13:39.906Z,15.47
2019-02-19T10:18:45.866Z,22.30
2019-02-19T10:23:52.170Z,20.97
2019-02-19T10:28:58.905Z,18.73
2019-02-19T10:34:05.007Z,14.40
2019-02-19T10:39:12.555Z,15.13
2019-02-19T10:44:18.883Z,20.03
2019-02-19T10:49:24.945Z,21.00
2019-02-19T10:54:31.097Z,12.73
2019-02-19T10:59:37.044Z,15.27
2019-02-19T11:04:45.758Z,19.13
2019-02-19T11:09:52.177Z,13.57
2019-02-19T11:14:58.221Z,19.37
2019-02-19T11:20:04.384Z,16.50
2019-02-19T11:25:12.576Z,18.30
2019-02-19T11:30:20.194Z,16.37
2019-02-19T11:35:26.271Z,13.37
2019-02-19T11:40:32.228Z,14.53
2019-02-19T11:45:38.622Z,14.63
2019-02-19T11:50:44.653Z,15.33
2019-02-19T11:55:50.614Z,12.87
2019-02-19T12:00:56.646Z,21.73
2019-02-19T12:06:03.005Z,18.23
2019-02-19T12:11:09.330Z,16.47
2019-02-19T12:16:15.849Z,14.50
2019-02-19T12:21:21.948Z,21.83
2019-02-19T12:26:28.011Z,15.33
2019-02-19T12:31:34.368Z,16.83
2019-02-19T12:36:41.321Z,11.77
2019-02-19T12:41:47.540Z,13.83
2019-02-19T12:46:53.466Z,15.47
2019-02-19T12:51:59.408Z,14.57
2019-02-19T12:57:05.570Z,12.57
2019-02-19T13:02:11.627Z,13.07
2019-02-19T13:07:18.257Z,12.63
2019-02-19T13:12:24.207Z,12.07
2019-02-19T13:17:30.088Z,13.97
2019-02-19T13:22:36.117Z,10.57
2019-02-19T13:27:42.067Z,10.93
2019-02-19T13:32:48.936Z,12.93
2019-02-19T13:37:54.965Z,15.70
2019-02-19T13:43:01.208Z,13.10
2019-02-19T13:48:07.529Z,13.03
2019-02-19T13:53:24.600Z,13.93
2019-02-19T13:58:31.410Z,10.87
2019-02-19T14:03:37.508Z,16.97
2019-02-19T14:08:43.520Z,13.03
2019-02-19T14:13:59.221Z,14.33
2019-02-19T14:19:21.244Z,11.37
2019-02-19T14:24:46.400Z,12.57
2019-02-19T14:30:20.563Z,11.97
2019-02-19T14:35:41.403Z,16.50
2019-02-19T14:41:04.576Z,13.87
2019-02-19T14:46:28.624Z,10.47
2019-02-19T14:51:52.072Z,12.53
2019-02-19T14:57:17.167Z,13.23
2019-02-19T15:02:42.188Z,11.40
2019-02-19T15:07:59.845Z,15.93
2019-02-19T15:13:18.824Z,19.27
2019-02-19T15:18:40.249Z,18.47
2019-02-19T15:23:53.702Z,19.80
2019-02-19T15:29:13.000Z,14.17
2019-02-19T15:34:40.891Z,18.67
2019-02-19T15:40:21.391Z,24.40
2019-02-19T15:45:44.848Z,16.77
2019-02-19T15:51:15.891Z,18.50
2019-02-19T15:56:39.208Z,17.00
2019-02-19T16:02:13.040Z,26.27
2019-02-19T16:07:35.133Z,24.83
2019-02-19T16:12:50.957Z,16.67
2019-02-19T16:18:09.139Z,15.80
2019-02-19T16:23:38.123Z,13.70
2019-02-19T16:28:57.925Z,18.57
2019-02-19T16:34:14.061Z,16.83
2019-02-19T16:39:29.379Z,14.40
2019-02-19T16:44:47.208Z,17.20
2019-02-19T16:50:15.181Z,16.43
2019-02-19T16:55:39.319Z,23.00
2019-02-19T17:00:59.615Z,19.63
2019-02-19T17:06:15.202Z,15.93
2019-02-19T17:11:45.541Z,16.30
2019-02-19T17:17:19.325Z,18.23
2019-02-19T17:22:37.635Z,19.53
2019-02-19T17:27:51.191Z,16.53
2019-02-19T17:33:16.296Z,20.23
2019-02-19T17:38:44.486Z,13.73
2019-02-19T17:44:09.667Z,18.50
2019-02-19T17:49:25.212Z,13.87
2019-02-19T17:54:41.945Z,13.50
2019-02-19T18:00:22.024Z,18.77
2019-02-19T18:05:35.128Z,19.67
2019-02-19T18:11:00.222Z,19.53
2019-02-19T18:16:15.144Z,17.27
2019-02-19T18:21:21.241Z,21.20
2019-02-19T18:26:27.224Z,16.47
2019-02-19T18:31:33.188Z,19.73
2019-02-19T18:36:39.836Z,16.77
2019-02-19T18:41:45.704Z,19.50
2019-02-19T18:46:51.744Z,15.77
2019-02-19T18:51:57.946Z,18.13
2019-02-19T18:57:03.973Z,21.07
2019-02-19T19:02:09.908Z,15.50
2019-02-19T19:07:15.859Z,15.30
2019-02-19T19:12:22.408Z,23.83
2019-02-19T19:17:28.469Z,20.00
2019-02-19T19:22:36.507Z,18.00
2019-02-19T19:27:42.709Z,20.30
2019-02-19T19:32:48.631Z,17.97
2019-02-19T19:37:54.642Z,21.87
2019-02-19T19:43:00.633Z,19.77
2019-02-19T19:48:07.763Z,16.57
2019-02-19T19:53:13.710Z,18.63
2019-02-19T19:58:19.643Z,22.83
2019-02-19T20:03:25.639Z,20.20
2019-02-19T20:08:31.940Z,19.60
2019-02-19T20:13:37.795Z,16.17
2019-02-19T20:18:43.830Z,18.93
2019-02-19T20:23:50.136Z,19.33
2019-02-19T20:28:56.185Z,17.43
2019-02-19T20:34:02.329Z,18.13
2019-02-19T20:39:08.656Z,13.87
2019-02-19T20:44:14.706Z,13.60
2019-02-19T20:49:20.687Z,16.40
2019-02-19T20:54:26.893Z,17.90
2019-02-19T20:59:32.892Z,19.27
2019-02-19T21:04:38.955Z,13.10
2019-02-19T21:09:44.953Z,15.30
2019-02-19T21:14:50.800Z,17.20
2019-02-19T21:19:56.684Z,15.33
2019-02-19T21:25:02.595Z,18.23
2019-02-19T21:30:10.261Z,19.60
2019-02-19T21:35:16.479Z,16.03
2019-02-19T21:40:22.638Z,19.10
2019-02-19T21:45:29.454Z,17.93
2019-02-19T21:50:35.484Z,18.30
2019-02-19T21:55:41.894Z,18.00
2019-02-19T22:00:47.936Z,15.10
2019-02-19T22:05:56.341Z,18.50
2019-02-19T22:11:02.268Z,16.67
2019-02-19T22:16:09.360Z,16.63
2019-02-19T22:21:46.589Z,19.60
2019-02-19T22:26:52.429Z,14.93
2019-02-19T22:31:58.401Z,15.80
2019-02-19T22:37:05.896Z,18.77
2019-02-19T22:42:12.007Z,31.53
2019-02-19T22:47:19.042Z,23.77
2019-02-19T22:52:26.048Z,18.27
2019-02-19T22:57:32.000Z,14.87
2019-02-19T23:02:38.308Z,18.53
2019-02-19T23:07:45.017Z,16.37
2019-02-19T23:12:53.224Z,15.27
2019-02-19T23:17:59.168Z,17.50
2019-02-19T23:23:05.420Z,14.17
2019-02-19T23:28:11.397Z,18.07
2019-02-19T23:33:17.502Z,17.33
2019-02-19T23:38:23.508Z,18.83
2019-02-19T23:43:33.191Z,17.10
2019-02-19T23:48:39.201Z,18.33
2019-02-19T23:53:45.234Z,17.97
2019-02-19T23:58:51.267Z,16.27
